首页
METAR-TAF:

METAR-TAF

机场 :

佩奇, 匈牙利

纬度: 46-06N, 经度: 018-14E, 海拔: 201米

当前天气观测

该预报发布于3小时和15分钟前的16:45 UTC
风速4节,风向南转南东
温度 25°C
湿度 54%
气压 1007 hPa
能见度10公里或以上
少量云层高于3600英尺
多云层高于8300英尺

METAR: LHPP 061645Z 16004KT 9999 FEW036 BKN083 25/15 Q1007

时间: 22:00 (20:00 UTC)

预报

该预报发布于5小时和45分钟前的14:15 UTC
预报有效从06日的 15点(UTC)到 06日的 24点(UTC)
风速5节,风向南转南东
能见度10公里或以上
散云层高于4000英尺
短暂存在
从 06日的 15点(UTC)到 06日的 17点(UTC)
风速10节,风向南转南东
多云层高于4000英尺, 塔状积云.
成为
从 06日的 17点(UTC)到 06日的 20点(UTC)
风速2节,风向多变
能见度10公里或以上
1500米以下无云,无积雨云

TAF: LHPP 061415Z 0615/0624 16005KT 9999 SCT040 TEMPO 0615/0617 16010KT BKN040TCU BECMG 0617/0620 VRB02KT CAVOK

超过4000个机场的气象观测和天气预报(METAR&TAF报告)。

可查询的气象台以黄色和红色小点在地图上表示。

将鼠标移到小点上方,可查看气象台名称。

然后点击查看天气观测和预报。

如需切换地图:点击带黑十字的绿色按钮放大地图;点击带横线的绿色按钮缩小地图;或者点击绿色箭头查看邻近地区的地图。


METAR-TAF: